Terminal Aerodrome Forecast
Issued by NWS Cleveland, OH

Home | Current Version | Previous Version | Graphics & Text | Print | Product List | Glossary On
Versions: 1 2 3 4 5 6 7 8 9 10 11 12 13 14 15 16 17
000
FTUS41 KCLE 291128
TAFTOL
TAF
KTOL 291128Z 2912/3012 VRB03KT P6SM OVC250
      TEMPO 2912/2915 -SHRA
     FM291500 10012KT 6SM -SHRA OVC050
     FM291800 10010KT 5SM SHRA BR OVC025
     FM292100 10010KT 4SM SHRA BR OVC007
     FM300300 31005KT 2SM BR OVC004
     FM300900 VRB03KT 1/2SM FG OVC004=

USA.gov is the U.S. government's official web portal to all federal, state and local government web resources and services.